createdAt,value
2023-01-18T00:02:40.225Z,10.65
2023-01-18T00:05:26.146Z,10.67
2023-01-18T00:08:14.063Z,10.69
2023-01-18T00:11:05.016Z,10.69
2023-01-18T00:13:50.869Z,10.69
2023-01-18T00:16:36.566Z,10.77
2023-01-18T00:20:39.665Z,10.82
2023-01-18T00:23:25.546Z,10.89
2023-01-18T00:26:12.711Z,10.94
2023-01-18T00:28:58.729Z,10.96
2023-01-18T00:31:44.785Z,10.97
2023-01-18T00:34:30.472Z,10.99
2023-01-18T00:42:05.284Z,11.00
2023-01-18T00:45:37.870Z,11.02
2023-01-18T00:48:24.035Z,11.07
2023-01-18T00:51:14.820Z,11.12
2023-01-18T00:54:00.596Z,11.11
2023-01-18T00:56:46.330Z,11.15
2023-01-18T00:59:32.218Z,11.17
2023-01-18T01:02:17.943Z,11.16
2023-01-18T01:08:35.308Z,11.20
2023-01-18T01:12:17.168Z,11.21
2023-01-18T01:20:02.778Z,11.24
2023-01-18T01:24:14.530Z,11.21
2023-01-18T01:27:00.509Z,11.25
2023-01-18T01:29:46.061Z,11.27
2023-01-18T01:33:59.678Z,11.27
2023-01-18T01:36:45.787Z,11.31
2023-01-18T01:39:31.683Z,11.32
2023-01-18T01:42:17.750Z,11.31
2023-01-18T01:45:04.016Z,11.36
2023-01-18T01:47:50.077Z,11.38
2023-01-18T01:50:38.485Z,11.34
2023-01-18T01:53:24.293Z,11.33
2023-01-18T01:56:10.372Z,11.33
2023-01-18T01:58:58.394Z,11.35
2023-01-18T02:02:07.172Z,11.31
2023-01-18T02:04:54.269Z,11.27
2023-01-18T02:07:56.858Z,11.23
2023-01-18T02:10:42.646Z,11.22
2023-01-18T02:13:28.543Z,11.19
2023-01-18T02:16:36.468Z,11.17
2023-01-18T02:19:59.812Z,11.17
2023-01-18T02:23:29.753Z,11.18
2023-01-18T02:27:09.846Z,11.22
2023-01-18T02:30:19.516Z,11.25
2023-01-18T02:33:58.332Z,11.28
2023-01-18T02:37:02.178Z,11.35
2023-01-18T02:49:27.308Z,11.50
2023-01-18T02:53:27.696Z,11.48
2023-01-18T02:56:22.269Z,11.44
2023-01-18T03:00:29.715Z,11.41
2023-01-18T03:04:41.800Z,11.40
2023-01-18T03:07:46.577Z,11.36
2023-01-18T03:10:35.695Z,11.35
2023-01-18T03:13:56.096Z,11.31
2023-01-18T03:17:18.798Z,11.29
2023-01-18T03:20:10.359Z,11.27
2023-01-18T03:34:50.239Z,11.19
2023-01-18T03:37:38.915Z,11.16
2023-01-18T03:40:27.536Z,11.13
2023-01-18T03:43:16.785Z,11.05
2023-01-18T03:46:03.366Z,11.04
2023-01-18T03:48:54.176Z,10.98
2023-01-18T03:52:14.218Z,10.88
2023-01-18T03:55:04.451Z,10.82
2023-01-18T03:58:19.255Z,10.78
2023-01-18T04:01:05.320Z,10.78
2023-01-18T04:03:51.094Z,10.73
2023-01-18T04:06:36.831Z,10.74
2023-01-18T04:09:22.759Z,10.70
2023-01-18T04:12:17.305Z,10.70
2023-01-18T04:15:04.183Z,10.73
2023-01-18T04:17:53.314Z,10.75
2023-01-18T04:20:39.130Z,10.79
2023-01-18T04:23:24.857Z,10.94
2023-01-18T04:26:11.984Z,11.06
2023-01-18T04:29:06.207Z,11.20
2023-01-18T04:31:51.913Z,11.30
2023-01-18T04:34:37.753Z,11.36
2023-01-18T04:37:30.430Z,11.41
2023-01-18T04:40:33.711Z,11.47
2023-01-18T04:43:19.254Z,11.47
2023-01-18T04:46:05.252Z,11.53
2023-01-18T04:48:52.188Z,11.56
2023-01-18T04:51:38.461Z,11.57
2023-01-18T04:54:24.178Z,11.58
2023-01-18T04:57:10.302Z,11.58
2023-01-18T04:59:55.890Z,11.62
2023-01-18T05:02:41.606Z,11.62
2023-01-18T05:05:27.270Z,11.55
2023-01-18T05:08:13.192Z,11.60
2023-01-18T05:11:03.849Z,11.61
2023-01-18T05:13:49.955Z,11.59
2023-01-18T05:17:59.152Z,11.63
2023-01-18T05:20:45.010Z,11.68
2023-01-18T05:23:30.522Z,11.74
2023-01-18T05:26:18.840Z,11.77
2023-01-18T05:29:04.848Z,11.78
2023-01-18T05:31:52.450Z,11.72
2023-01-18T05:34:38.446Z,11.68
2023-01-18T05:37:24.339Z,11.63
2023-01-18T05:40:10.667Z,11.57
2023-01-18T05:42:56.480Z,11.53
2023-01-18T05:45:45.601Z,11.44
2023-01-18T05:48:43.387Z,11.43
2023-01-18T05:52:00.088Z,11.40
2023-01-18T05:55:19.306Z,11.35
2023-01-18T05:58:04.874Z,11.29
2023-01-18T06:00:50.681Z,11.27
2023-01-18T06:03:37.002Z,11.24
2023-01-18T06:06:23.676Z,11.27
2023-01-18T06:09:09.449Z,11.26
2023-01-18T06:11:58.336Z,11.24
2023-01-18T06:14:45.134Z,11.27
2023-01-18T06:17:31.442Z,11.24
2023-01-18T06:20:17.504Z,11.25
2023-01-18T06:23:03.109Z,11.28
2023-01-18T06:25:49.040Z,11.26
2023-01-18T06:28:34.770Z,11.30
2023-01-18T06:31:39.153Z,11.29
2023-01-18T06:34:25.295Z,11.36
2023-01-18T06:37:11.087Z,11.42
2023-01-18T06:39:56.809Z,11.46
2023-01-18T06:42:42.600Z,11.60
2023-01-18T06:45:29.398Z,11.68
2023-01-18T06:48:17.323Z,11.75
2023-01-18T06:51:03.429Z,11.80
2023-01-18T06:53:50.139Z,11.88
2023-01-18T06:56:35.944Z,11.88
2023-01-18T06:59:21.822Z,11.95
2023-01-18T07:02:09.726Z,11.97
2023-01-18T07:05:06.487Z,11.95
2023-01-18T07:07:52.106Z,12.01
2023-01-18T07:11:21.133Z,12.01
2023-01-18T07:14:06.874Z,11.97
2023-01-18T07:16:52.545Z,11.97
2023-01-18T07:20:57.597Z,11.86
2023-01-18T07:23:43.430Z,11.81
2023-01-18T07:26:29.417Z,11.77
2023-01-18T07:29:15.593Z,11.75
2023-01-18T07:32:18.123Z,11.72
2023-01-18T07:35:05.276Z,11.72
2023-01-18T07:37:54.982Z,11.72
2023-01-18T07:40:40.864Z,11.72
2023-01-18T07:43:26.632Z,11.73
2023-01-18T07:46:16.872Z,11.71
2023-01-18T07:49:05.880Z,11.73
2023-01-18T07:51:51.837Z,11.71
2023-01-18T07:55:46.857Z,11.67
2023-01-18T07:58:34.700Z,11.66
2023-01-18T08:01:23.188Z,11.62
2023-01-18T08:04:18.104Z,11.61
2023-01-18T08:07:04.086Z,11.63
2023-01-18T08:09:51.114Z,11.62
2023-01-18T08:12:37.121Z,11.61
2023-01-18T08:15:22.798Z,11.63
2023-01-18T08:18:09.037Z,11.61
2023-01-18T08:20:55.320Z,11.68
2023-01-18T08:23:44.156Z,11.76
2023-01-18T08:26:30.166Z,11.79
2023-01-18T08:29:16.185Z,11.85
2023-01-18T08:32:02.750Z,11.97
2023-01-18T08:34:48.601Z,12.08
2023-01-18T08:37:34.642Z,12.22
2023-01-18T08:40:22.000Z,12.24
2023-01-18T08:43:07.987Z,12.38
2023-01-18T08:45:53.904Z,12.43
2023-01-18T08:48:39.668Z,12.45
2023-01-18T08:51:26.238Z,12.43
2023-01-18T08:54:12.110Z,12.40
2023-01-18T08:56:57.917Z,12.39
2023-01-18T08:59:43.527Z,12.36
2023-01-18T09:02:29.228Z,12.34
2023-01-18T09:05:15.157Z,12.32
2023-01-18T09:08:01.804Z,12.31
2023-01-18T09:10:47.654Z,12.30
2023-01-18T09:13:33.916Z,12.28
2023-01-18T09:16:20.876Z,12.26
2023-01-18T09:19:08.172Z,12.30
2023-01-18T09:21:54.344Z,12.32
2023-01-18T09:24:41.749Z,12.36
2023-01-18T09:27:27.772Z,12.43
2023-01-18T09:30:16.279Z,12.47
2023-01-18T09:33:02.497Z,12.48
2023-01-18T09:35:48.551Z,12.52
2023-01-18T09:38:36.171Z,12.60
2023-01-18T09:41:40.254Z,12.65
2023-01-18T09:44:39.744Z,12.68
2023-01-18T09:47:40.306Z,12.82
2023-01-18T09:50:26.432Z,12.89
2023-01-18T09:53:16.745Z,12.97
2023-01-18T09:56:16.518Z,13.07
2023-01-18T09:59:18.056Z,13.24
2023-01-18T10:02:17.997Z,13.44
2023-01-18T10:05:14.306Z,13.62
2023-01-18T10:08:04.437Z,13.72
2023-01-18T10:11:09.891Z,13.90
2023-01-18T10:14:07.278Z,14.03
2023-01-18T10:16:58.138Z,14.13
2023-01-18T10:19:45.414Z,14.23
2023-01-18T10:22:35.058Z,14.36
2023-01-18T10:25:39.528Z,14.53
2023-01-18T10:28:40.834Z,14.60
2023-01-18T10:31:44.458Z,14.49
2023-01-18T10:34:32.137Z,14.31
2023-01-18T10:37:33.555Z,14.07
2023-01-18T10:40:19.765Z,13.89
2023-01-18T10:43:10.610Z,13.74
2023-01-18T10:45:57.420Z,13.64
2023-01-18T10:48:48.833Z,13.47
2023-01-18T10:51:36.631Z,13.37
2023-01-18T10:54:26.017Z,13.29
2023-01-18T10:57:21.299Z,13.20
2023-01-18T11:00:12.632Z,13.10
2023-01-18T11:03:00.303Z,13.03
2023-01-18T11:05:46.520Z,12.91
2023-01-18T11:08:35.546Z,12.83
2023-01-18T11:11:50.203Z,12.75
2023-01-18T11:14:39.691Z,12.63
2023-01-18T11:17:25.423Z,12.58
2023-01-18T11:20:35.353Z,12.47
2023-01-18T11:23:21.457Z,12.37
2023-01-18T11:26:15.070Z,12.23
2023-01-18T11:29:04.688Z,12.17
2023-01-18T11:31:52.963Z,12.15
2023-01-18T11:34:43.865Z,12.00
2023-01-18T11:37:45.866Z,11.75
2023-01-18T11:40:34.187Z,11.50
2023-01-18T11:43:23.139Z,11.29
2023-01-18T11:46:34.824Z,11.16
2023-01-18T11:49:29.783Z,11.13
2023-01-18T11:52:46.895Z,11.09
2023-01-18T11:55:39.731Z,11.08
2023-01-18T11:58:28.399Z,11.06
2023-01-18T12:01:46.112Z,11.12
2023-01-18T12:05:01.291Z,11.21
2023-01-18T12:07:50.184Z,11.32
2023-01-18T12:11:04.396Z,11.40
2023-01-18T12:14:16.186Z,11.48
2023-01-18T12:17:17.963Z,11.57
2023-01-18T12:20:25.847Z,11.63
2023-01-18T12:28:09.860Z,11.76
2023-01-18T12:31:16.721Z,11.78
2023-01-18T12:34:07.507Z,11.79
2023-01-18T12:36:56.117Z,11.78
2023-01-18T12:39:56.582Z,11.75
2023-01-18T12:43:12.892Z,11.71
2023-01-18T12:46:03.562Z,11.70
2023-01-18T12:48:57.012Z,11.65
2023-01-18T12:51:43.461Z,11.63
2023-01-18T12:54:48.330Z,11.64
2023-01-18T12:57:34.040Z,11.64
2023-01-18T13:00:23.764Z,11.66
2023-01-18T13:03:15.014Z,11.65
2023-01-18T13:06:02.612Z,11.68
2023-01-18T13:08:58.423Z,11.65
2023-01-18T13:11:45.000Z,11.61
2023-01-18T13:14:33.620Z,11.60
2023-01-18T13:17:30.195Z,11.50
2023-01-18T13:20:18.159Z,11.52
2023-01-18T13:23:40.679Z,11.47
2023-01-18T13:26:29.887Z,11.47
2023-01-18T13:29:24.153Z,11.47
2023-01-18T13:32:24.824Z,11.44
2023-01-18T13:35:21.730Z,11.43
2023-01-18T13:38:13.011Z,11.48
2023-01-18T13:41:22.844Z,11.48
2023-01-18T13:44:39.519Z,11.52
2023-01-18T13:47:45.766Z,11.53
2023-01-18T13:50:31.749Z,11.57
2023-01-18T13:53:22.389Z,11.59
2023-01-18T13:56:09.647Z,11.62
2023-01-18T13:59:01.308Z,11.65
2023-01-18T14:01:49.089Z,11.64
2023-01-18T14:04:35.826Z,11.64
2023-01-18T14:07:22.824Z,11.60
2023-01-18T14:10:25.131Z,11.57
2023-01-18T14:13:15.617Z,11.55
2023-01-18T14:16:01.516Z,11.51
2023-01-18T14:18:54.484Z,11.43
2023-01-18T14:22:03.266Z,11.36
2023-01-18T14:25:02.315Z,11.25
2023-01-18T14:27:54.894Z,11.14
2023-01-18T14:30:41.953Z,11.01
2023-01-18T14:33:39.637Z,10.91
2023-01-18T14:36:28.573Z,10.82
2023-01-18T14:39:17.828Z,10.78
2023-01-18T14:42:04.266Z,10.74
2023-01-18T14:44:58.230Z,10.72
2023-01-18T14:47:45.102Z,10.75
2023-01-18T14:50:33.411Z,10.78
2023-01-18T14:53:29.320Z,10.78
2023-01-18T14:56:22.801Z,10.81
2023-01-18T14:59:27.808Z,10.81
2023-01-18T15:02:19.095Z,10.83
2023-01-18T15:05:20.216Z,10.82
2023-01-18T15:08:08.728Z,10.86
2023-01-18T15:10:54.712Z,10.90
2023-01-18T15:13:51.490Z,10.89
2023-01-18T15:16:37.339Z,10.87
2023-01-18T15:19:40.676Z,10.84
2023-01-18T15:22:36.311Z,10.83
2023-01-18T15:25:28.274Z,10.81
2023-01-18T15:28:23.614Z,10.83
2023-01-18T15:31:15.581Z,10.77
2023-01-18T15:34:01.277Z,10.81
2023-01-18T15:36:47.201Z,10.80
2023-01-18T15:39:33.694Z,10.80
2023-01-18T15:42:19.832Z,10.82
2023-01-18T15:45:13.043Z,10.83
2023-01-18T15:48:10.358Z,10.85
2023-01-18T15:50:57.772Z,10.86
2023-01-18T15:53:46.314Z,10.87
2023-01-18T15:56:33.417Z,10.88
2023-01-18T15:59:23.177Z,10.88
2023-01-18T16:02:09.168Z,10.88
2023-01-18T16:05:22.584Z,10.84
2023-01-18T16:08:22.719Z,10.80
2023-01-18T16:11:26.747Z,10.78
2023-01-18T16:14:31.434Z,10.77
2023-01-18T16:17:20.893Z,10.79
2023-01-18T16:20:16.540Z,10.78
2023-01-18T16:23:13.313Z,10.72
2023-01-18T16:26:03.979Z,10.75
2023-01-18T16:28:51.427Z,10.78
2023-01-18T16:31:41.236Z,10.74
2023-01-18T16:34:27.083Z,10.70
2023-01-18T16:37:13.252Z,10.67
2023-01-18T16:39:59.277Z,10.66
2023-01-18T16:42:59.775Z,10.62
2023-01-18T16:45:47.378Z,10.58
2023-01-18T16:48:34.173Z,10.53
2023-01-18T16:51:20.003Z,10.50
2023-01-18T16:54:06.599Z,10.37
2023-01-18T16:56:52.215Z,10.40
2023-01-18T16:59:37.834Z,10.34
2023-01-18T17:02:23.866Z,10.28
2023-01-18T17:05:10.501Z,10.25
2023-01-18T17:07:56.953Z,10.20
2023-01-18T17:10:45.401Z,10.15
2023-01-18T17:13:31.476Z,10.15
2023-01-18T17:16:19.197Z,10.13
2023-01-18T17:19:05.997Z,10.08
2023-01-18T17:21:52.078Z,10.08
2023-01-18T17:24:37.977Z,10.06
2023-01-18T17:27:23.607Z,10.05
2023-01-18T17:30:11.239Z,10.06
2023-01-18T17:32:57.366Z,10.04
2023-01-18T17:35:43.846Z,10.03
2023-01-18T17:41:26.780Z,10.01
2023-01-18T17:44:14.245Z,9.95
2023-01-18T17:47:00.372Z,9.87
2023-01-18T17:49:46.085Z,9.84
2023-01-18T17:52:31.807Z,9.81
2023-01-18T17:55:24.269Z,9.78
2023-01-18T17:58:25.682Z,9.74
2023-01-18T18:01:13.848Z,9.74
2023-01-18T18:03:59.958Z,9.71
2023-01-18T18:06:53.604Z,9.71
2023-01-18T18:09:42.922Z,9.65
2023-01-18T18:12:33.541Z,9.68
2023-01-18T18:15:22.309Z,9.63
2023-01-18T18:18:21.928Z,9.61
2023-01-18T18:21:08.717Z,9.60
2023-01-18T18:23:54.821Z,9.60
2023-01-18T18:26:40.428Z,9.58
2023-01-18T18:29:26.314Z,9.56
2023-01-18T18:32:12.307Z,9.54
2023-01-18T18:34:58.284Z,9.52
2023-01-18T18:37:44.342Z,9.49
2023-01-18T18:40:30.481Z,9.45
2023-01-18T18:43:16.678Z,9.41
2023-01-18T18:46:02.797Z,9.35
2023-01-18T18:48:48.512Z,9.33
2023-01-18T18:51:35.585Z,9.34
2023-01-18T18:54:22.597Z,9.34
2023-01-18T18:57:08.256Z,9.28
2023-01-18T18:59:54.011Z,9.33
2023-01-18T19:02:39.759Z,9.32
2023-01-18T19:05:25.664Z,9.30
2023-01-18T19:08:11.437Z,9.26
2023-01-18T19:10:57.309Z,9.29
2023-01-18T19:13:49.697Z,9.23
2023-01-18T19:16:36.888Z,9.26
2023-01-18T19:19:23.460Z,9.24
2023-01-18T19:22:10.998Z,9.23
2023-01-18T19:24:57.111Z,9.21
2023-01-18T19:27:43.062Z,9.22
2023-01-18T19:30:31.595Z,9.16
2023-01-18T19:33:18.160Z,9.09
2023-01-18T19:36:12.944Z,9.09
2023-01-18T19:39:00.158Z,9.08
2023-01-18T19:41:49.746Z,9.05
2023-01-18T19:44:35.299Z,9.01
2023-01-18T19:47:20.857Z,8.93
2023-01-18T19:50:06.955Z,9.00
2023-01-18T19:52:53.183Z,9.02
2023-01-18T19:55:39.164Z,9.00
2023-01-18T19:58:24.888Z,9.03
2023-01-18T20:01:18.228Z,9.02
2023-01-18T20:04:13.540Z,8.97
2023-01-18T20:07:00.530Z,8.95
2023-01-18T20:09:46.099Z,8.90
2023-01-18T20:12:34.940Z,8.85
2023-01-18T20:15:21.291Z,8.75
2023-01-18T20:18:08.735Z,8.74
2023-01-18T20:20:56.955Z,8.73
2023-01-18T20:23:44.170Z,8.78
2023-01-18T20:26:36.801Z,8.86
2023-01-18T20:29:26.893Z,8.91
2023-01-18T20:32:16.733Z,8.97
2023-01-18T20:35:03.616Z,8.99
2023-01-18T20:37:49.369Z,9.07
2023-01-18T20:40:50.258Z,9.09
2023-01-18T20:43:36.243Z,9.09
2023-01-18T20:46:22.401Z,9.11
2023-01-18T20:49:08.707Z,9.08
2023-01-18T20:51:54.516Z,9.08
2023-01-18T20:54:40.587Z,9.08
2023-01-18T20:57:30.018Z,9.07
2023-01-18T21:00:17.471Z,9.12
2023-01-18T21:03:04.587Z,9.11
2023-01-18T21:05:50.474Z,9.14
2023-01-18T21:08:36.279Z,9.25
2023-01-18T21:11:26.939Z,9.32
2023-01-18T21:14:12.872Z,9.41
2023-01-18T21:16:58.702Z,9.48
2023-01-18T21:19:46.113Z,9.56
2023-01-18T21:22:36.078Z,9.72
2023-01-18T21:25:22.154Z,9.79
2023-01-18T21:28:07.859Z,9.82
2023-01-18T21:30:55.508Z,9.90
2023-01-18T21:33:42.499Z,9.93
2023-01-18T21:36:28.493Z,9.96
2023-01-18T21:39:18.517Z,9.96
2023-01-18T21:42:25.102Z,9.98
2023-01-18T21:45:37.438Z,10.06
2023-01-18T21:48:28.734Z,10.15
2023-01-18T21:51:44.838Z,10.16
2023-01-18T21:54:37.917Z,10.29
2023-01-18T21:57:32.092Z,10.35
2023-01-18T22:00:19.070Z,10.39
2023-01-18T22:03:06.257Z,10.42
2023-01-18T22:05:52.301Z,10.44
2023-01-18T22:08:38.452Z,10.49
2023-01-18T22:11:24.017Z,10.50
2023-01-18T22:14:10.236Z,10.45
2023-01-18T22:16:57.408Z,10.52
2023-01-18T22:19:45.075Z,10.53
2023-01-18T22:22:30.984Z,10.54
2023-01-18T22:25:16.715Z,10.54
2023-01-18T22:28:02.719Z,10.56
2023-01-18T22:30:48.920Z,10.56
2023-01-18T22:33:34.957Z,10.53
2023-01-18T22:36:20.972Z,10.43
2023-01-18T22:39:06.944Z,10.36
2023-01-18T22:41:52.882Z,10.29
2023-01-18T22:44:38.846Z,10.21
2023-01-18T22:47:24.857Z,10.22
2023-01-18T22:50:11.334Z,10.24
2023-01-18T22:52:57.212Z,10.21
2023-01-18T22:55:42.841Z,10.18
2023-01-18T22:58:28.888Z,10.16
2023-01-18T23:01:16.856Z,10.09
2023-01-18T23:04:04.126Z,10.06
2023-01-18T23:06:52.088Z,10.01
2023-01-18T23:09:38.068Z,9.97
2023-01-18T23:12:23.867Z,9.89
2023-01-18T23:15:31.276Z,9.91
2023-01-18T23:18:18.903Z,9.81
2023-01-18T23:21:05.097Z,9.85
2023-01-18T23:23:51.176Z,9.86
2023-01-18T23:26:37.106Z,9.85
2023-01-18T23:29:22.738Z,9.89
2023-01-18T23:32:08.619Z,9.85
2023-01-18T23:34:55.414Z,9.81
2023-01-18T23:37:41.519Z,9.88
2023-01-18T23:47:59.900Z,9.87
2023-01-18T23:51:07.981Z,9.92
2023-01-18T23:54:19.782Z,9.85
2023-01-18T23:57:05.689Z,9.88
2023-01-18T23:59:51.364Z,9.86
